createdAt,value
2022-10-05T00:01:01.729Z,99029.28
2022-10-05T00:03:38.970Z,99046.41
2022-10-05T00:06:07.549Z,99044.66
2022-10-05T00:08:36.172Z,99041.19
2022-10-05T00:11:08.009Z,99040.31
2022-10-05T00:13:37.709Z,99047.16
2022-10-05T00:16:13.974Z,99030.88
2022-10-05T00:18:42.393Z,99040.28
2022-10-05T00:21:18.699Z,99029.97
2022-10-05T00:23:47.398Z,99043.69
2022-10-05T00:26:19.289Z,99026.59
2022-10-05T00:28:48.998Z,99029.16
2022-10-05T00:31:19.639Z,99026.59
2022-10-05T00:33:48.850Z,99043.75
2022-10-05T00:36:17.410Z,99038.63
2022-10-05T00:38:46.963Z,99048.06
2022-10-05T00:41:19.443Z,99024.09
2022-10-05T00:44:00.848Z,99033.47
2022-10-05T00:46:38.066Z,99043.72
2022-10-05T00:49:12.354Z,99046.25
2022-10-05T00:51:41.378Z,99036.81
2022-10-05T00:54:20.255Z,99049.75
2022-10-05T00:57:01.433Z,99001.78
2022-10-05T00:59:41.287Z,99030.81
2022-10-05T01:02:14.916Z,99052.19
2022-10-05T01:04:47.999Z,99052.22
2022-10-05T01:07:22.358Z,99047.03
2022-10-05T01:09:56.430Z,99046.09
2022-10-05T01:12:31.947Z,99046.19
2022-10-05T01:15:07.142Z,99021.44
2022-10-05T01:17:40.337Z,99060.75
2022-10-05T01:20:18.163Z,99056.53
2022-10-05T01:23:05.216Z,99054.84
2022-10-05T01:25:42.276Z,99045.44
2022-10-05T01:28:14.884Z,99059.16
2022-10-05T01:30:49.459Z,99042.03
2022-10-05T01:33:20.218Z,99052.31
2022-10-05T01:35:53.995Z,99057.50
2022-10-05T01:38:32.522Z,99050.59
2022-10-05T01:41:06.533Z,99054.09
2022-10-05T01:43:40.149Z,99058.44
2022-10-05T01:46:14.727Z,99031.03
2022-10-05T01:48:46.049Z,99050.78
2022-10-05T01:51:20.086Z,99025.09
2022-10-05T01:53:57.776Z,99032.78
2022-10-05T01:56:33.067Z,99049.88
2022-10-05T01:59:16.311Z,99049.06
2022-10-05T02:01:50.419Z,99050.75
2022-10-05T02:04:56.599Z,99046.50
2022-10-05T02:07:15.317Z,99061.06
2022-10-05T02:09:48.077Z,99056.78
2022-10-05T02:12:20.573Z,99055.94
2022-10-05T02:14:56.322Z,99049.09
2022-10-05T02:17:27.735Z,99061.97
2022-10-05T02:20:00.746Z,99060.31
2022-10-05T02:22:32.117Z,99065.47
2022-10-05T02:25:03.072Z,99062.06
2022-10-05T02:27:36.112Z,99068.09
2022-10-05T02:30:11.684Z,99062.03
2022-10-05T02:32:51.183Z,99066.41
2022-10-05T02:35:21.282Z,99067.28
2022-10-05T02:37:57.482Z,99068.16
2022-10-05T02:40:34.657Z,99060.50
2022-10-05T02:43:11.635Z,99073.28
2022-10-05T02:45:48.429Z,99069.88
2022-10-05T02:48:24.209Z,99075.03
2022-10-05T02:50:58.459Z,99069.88
2022-10-05T02:53:32.918Z,99059.56
2022-10-05T02:56:11.181Z,99071.53
2022-10-05T02:58:44.362Z,99056.16
2022-10-05T03:01:20.224Z,99072.38
2022-10-05T03:03:55.257Z,99076.66
2022-10-05T03:06:27.283Z,99075.84
2022-10-05T03:09:01.906Z,99057.00
2022-10-05T03:11:35.493Z,99077.53
2022-10-05T03:14:11.156Z,99080.16
2022-10-05T03:16:49.173Z,99074.97
2022-10-05T03:19:27.367Z,99078.44
2022-10-05T03:22:00.972Z,99081.91
2022-10-05T03:24:43.669Z,99067.34
2022-10-05T03:27:20.096Z,99087.13
2022-10-05T03:29:54.644Z,99093.16
2022-10-05T03:32:28.864Z,99092.31
2022-10-05T03:35:01.744Z,99088.03
2022-10-05T03:37:38.647Z,99068.41
2022-10-05T03:40:11.481Z,99091.53
2022-10-05T03:42:51.924Z,99094.19
2022-10-05T03:45:24.503Z,99094.28
2022-10-05T03:48:01.438Z,99097.78
2022-10-05T03:50:40.739Z,99089.19
2022-10-05T03:53:13.442Z,99087.56
2022-10-05T03:55:45.521Z,99085.03
2022-10-05T03:58:18.831Z,99088.47
2022-10-05T04:00:49.816Z,99079.06
2022-10-05T04:03:22.997Z,99090.16
2022-10-05T04:05:55.294Z,99085.00
2022-10-05T04:08:29.872Z,99095.22
2022-10-05T04:10:59.356Z,99096.09
2022-10-05T04:13:32.878Z,99082.41
2022-10-05T04:16:07.000Z,99075.59
2022-10-05T04:18:39.919Z,99082.41
2022-10-05T04:21:12.060Z,99100.38
2022-10-05T04:23:46.291Z,99106.38
2022-10-05T04:26:19.185Z,99109.78
2022-10-05T04:28:54.136Z,99100.34
2022-10-05T04:31:33.544Z,99102.00
2022-10-05T04:34:06.582Z,99113.13
2022-10-05T04:36:39.302Z,99114.84
2022-10-05T04:39:20.418Z,99115.69
2022-10-05T04:42:00.390Z,99110.53
2022-10-05T04:44:48.918Z,99105.41
2022-10-05T04:47:27.611Z,99102.78
2022-10-05T04:50:09.684Z,99107.88
2022-10-05T04:52:43.449Z,99104.44
2022-10-05T04:55:18.517Z,99098.44
2022-10-05T04:57:51.230Z,99114.69
2022-10-05T05:00:24.191Z,99113.81
2022-10-05T05:03:20.945Z,99121.53
2022-10-05T05:06:18.233Z,99116.38
2022-10-05T05:09:04.862Z,99124.06
2022-10-05T05:11:36.258Z,99120.59
2022-10-05T05:14:21.872Z,99118.00
2022-10-05T05:16:55.124Z,99125.72
2022-10-05T05:19:30.292Z,99100.78
2022-10-05T05:22:03.278Z,99118.78
2022-10-05T05:24:42.549Z,99116.22
2022-10-05T05:27:23.151Z,99111.88
2022-10-05T05:30:01.529Z,99075.03
2022-10-05T05:32:40.474Z,99119.59
2022-10-05T05:36:05.965Z,99111.81
2022-10-05T05:38:38.545Z,99101.56
2022-10-05T05:41:12.222Z,99096.53
2022-10-05T05:43:53.360Z,99117.16
2022-10-05T05:46:44.592Z,99130.91
2022-10-05T05:49:18.048Z,99128.34
2022-10-05T05:51:51.564Z,99136.06
2022-10-05T05:54:28.543Z,99125.78
2022-10-05T05:57:04.402Z,99130.91
2022-10-05T05:59:49.027Z,99136.81
2022-10-05T06:02:21.146Z,99139.31
2022-10-05T06:04:53.794Z,99139.25
2022-10-05T06:07:30.381Z,99120.59
2022-10-05T06:10:06.309Z,99106.06
2022-10-05T06:12:43.357Z,99127.50
2022-10-05T06:15:21.187Z,99139.56
2022-10-05T06:17:52.872Z,99150.81
2022-10-05T06:20:25.677Z,99151.84
2022-10-05T06:22:54.313Z,99148.34
2022-10-05T06:25:28.869Z,99156.13
2022-10-05T06:27:59.484Z,99159.59
2022-10-05T06:30:33.186Z,99159.53
2022-10-05T06:33:08.613Z,99157.91
2022-10-05T06:35:47.451Z,99173.22
2022-10-05T06:38:26.039Z,99152.66
2022-10-05T06:41:02.943Z,99180.09
2022-10-05T06:43:50.308Z,99177.44
2022-10-05T06:47:00.164Z,99179.78
2022-10-05T06:50:05.173Z,99151.63
2022-10-05T06:52:50.228Z,99158.38
2022-10-05T06:55:24.901Z,99182.13
2022-10-05T06:58:06.671Z,99176.78
2022-10-05T07:00:40.831Z,99189.41
2022-10-05T07:03:18.705Z,99171.28
2022-10-05T07:05:59.343Z,99202.91
2022-10-05T07:08:36.972Z,99201.16
2022-10-05T07:11:11.850Z,99193.72
2022-10-05T07:14:00.589Z,99173.97
2022-10-05T07:16:38.017Z,99198.72
2022-10-05T07:19:16.637Z,99191.19
2022-10-05T07:21:48.811Z,99214.16
2022-10-05T07:24:29.395Z,99215.81
2022-10-05T07:27:05.662Z,99209.47
2022-10-05T07:29:39.838Z,99163.09
2022-10-05T07:32:17.057Z,99213.41
2022-10-05T07:34:51.114Z,99223.75
2022-10-05T07:37:41.862Z,99191.00
2022-10-05T07:40:14.252Z,99206.59
2022-10-05T07:42:56.646Z,99213.41
2022-10-05T07:45:31.267Z,99221.19
2022-10-05T07:48:07.202Z,99229.56
2022-10-05T07:50:38.932Z,99239.69
2022-10-05T07:53:15.525Z,99219.25
2022-10-05T07:55:48.340Z,99223.66
2022-10-05T07:58:20.944Z,99241.13
2022-10-05T08:01:01.877Z,99237.00
2022-10-05T08:03:39.749Z,99216.47
2022-10-05T08:06:11.414Z,99243.63
2022-10-05T08:08:44.485Z,99246.78
2022-10-05T08:11:15.802Z,99245.66
2022-10-05T08:13:48.947Z,99249.06
2022-10-05T08:16:19.884Z,99246.00
2022-10-05T08:18:56.509Z,99250.91
2022-10-05T08:21:29.409Z,99249.91
2022-10-05T08:24:00.297Z,99258.44
2022-10-05T08:26:34.564Z,99247.38
2022-10-05T08:29:13.778Z,99257.22
2022-10-05T08:31:46.336Z,99262.72
2022-10-05T08:34:22.597Z,99272.41
2022-10-05T08:36:57.320Z,99266.53
2022-10-05T08:39:26.309Z,99277.00
2022-10-05T08:42:26.189Z,99268.00
2022-10-05T08:45:34.842Z,99276.00
2022-10-05T08:48:29.823Z,99288.38
2022-10-05T08:51:42.682Z,99282.25
2022-10-05T08:54:24.929Z,99286.53
2022-10-05T08:57:02.319Z,99283.66
2022-10-05T08:59:53.414Z,99286.13
2022-10-05T09:02:28.319Z,99291.06
2022-10-05T09:05:15.919Z,99294.31
2022-10-05T09:07:58.605Z,99284.16
2022-10-05T09:10:54.876Z,99293.72
2022-10-05T09:13:34.517Z,99279.41
2022-10-05T09:16:22.715Z,99296.97
2022-10-05T09:19:17.253Z,99304.72
2022-10-05T09:21:58.793Z,99302.84
2022-10-05T09:24:29.820Z,99286.47
2022-10-05T09:27:05.215Z,99304.31
2022-10-05T09:30:06.279Z,99307.56
2022-10-05T09:33:02.768Z,99291.13
2022-10-05T09:35:52.149Z,99316.75
2022-10-05T09:38:29.298Z,99320.50
2022-10-05T09:41:26.147Z,99306.97
2022-10-05T09:44:18.236Z,99329.34
2022-10-05T09:47:09.662Z,99285.41
2022-10-05T09:49:54.360Z,99312.94
2022-10-05T09:52:38.644Z,99306.97
2022-10-05T09:55:27.431Z,99316.22
2022-10-05T09:58:34.010Z,99329.97
2022-10-05T10:01:32.512Z,99328.16
2022-10-05T10:04:19.475Z,99329.91
2022-10-05T10:07:02.602Z,99301.38
2022-10-05T10:09:38.679Z,99327.88
2022-10-05T10:12:36.299Z,99307.41
2022-10-05T10:15:29.533Z,99338.47
2022-10-05T10:18:17.776Z,99336.94
2022-10-05T10:21:00.502Z,99340.50
2022-10-05T10:24:00.358Z,99346.63
2022-10-05T10:26:52.900Z,99346.69
2022-10-05T10:29:37.256Z,99356.34
2022-10-05T10:32:25.991Z,99352.91
2022-10-05T10:35:19.001Z,99355.56
2022-10-05T10:38:24.978Z,99349.84
2022-10-05T10:41:18.315Z,99374.69
2022-10-05T10:44:24.023Z,99350.50
2022-10-05T10:46:57.341Z,99366.69
2022-10-05T10:49:41.855Z,99365.56
2022-10-05T10:52:22.803Z,99367.94
2022-10-05T10:55:07.952Z,99350.44
2022-10-05T10:57:55.480Z,99367.06
2022-10-05T11:00:29.601Z,99363.88
2022-10-05T11:03:17.052Z,99343.41
2022-10-05T11:06:09.665Z,99368.03
2022-10-05T11:09:04.960Z,99370.03
2022-10-05T11:11:57.768Z,99376.38
2022-10-05T11:14:39.807Z,99383.31
2022-10-05T11:17:33.577Z,99374.09
2022-10-05T11:20:35.129Z,99385.97
2022-10-05T11:23:20.852Z,99398.97
2022-10-05T11:25:59.063Z,99398.25
2022-10-05T11:28:39.671Z,99402.03
2022-10-05T11:31:39.257Z,99413.34
2022-10-05T11:34:43.863Z,99420.53
2022-10-05T11:37:47.491Z,99415.75
2022-10-05T11:40:34.677Z,99419.28
2022-10-05T11:43:29.774Z,99429.81
2022-10-05T11:46:05.614Z,99426.44
2022-10-05T11:48:56.956Z,99430.66
2022-10-05T11:51:41.473Z,99408.34
2022-10-05T11:55:09.164Z,99439.25
2022-10-05T11:57:37.776Z,99437.69
2022-10-05T12:00:16.345Z,99430.81
2022-10-05T12:03:01.459Z,99467.81
2022-10-05T12:05:37.187Z,99472.22
2022-10-05T12:08:17.225Z,99473.19
2022-10-05T12:10:50.682Z,99462.97
2022-10-05T12:13:26.982Z,99470.72
2022-10-05T12:15:58.989Z,99471.53
2022-10-05T12:18:45.833Z,99464.66
2022-10-05T12:21:22.866Z,99470.69
2022-10-05T12:23:54.923Z,99455.19
2022-10-05T12:26:26.152Z,99478.34
2022-10-05T12:29:00.176Z,99468.03
2022-10-05T12:31:37.069Z,99475.75
2022-10-05T12:34:14.624Z,99468.75
2022-10-05T12:37:03.453Z,99476.56
2022-10-05T12:39:40.370Z,99479.91
2022-10-05T12:42:18.845Z,99468.75
2022-10-05T12:45:07.693Z,99486.88
2022-10-05T12:47:42.730Z,99476.56
2022-10-05T12:50:23.960Z,99461.25
2022-10-05T12:53:01.670Z,99477.44
2022-10-05T12:55:36.241Z,99472.22
2022-10-05T12:58:17.003Z,99463.59
2022-10-05T13:00:51.863Z,99472.13
2022-10-05T13:03:26.329Z,99465.25
2022-10-05T13:06:02.747Z,99426.69
2022-10-05T13:08:37.642Z,99478.19
2022-10-05T13:11:14.087Z,99478.28
2022-10-05T13:13:54.298Z,99468.03
2022-10-05T13:16:31.030Z,99481.75
2022-10-05T13:19:17.591Z,99493.06
2022-10-05T13:22:02.408Z,99491.38
2022-10-05T13:24:33.390Z,99492.28
2022-10-05T13:27:05.247Z,99475.97
2022-10-05T13:29:38.184Z,99497.47
2022-10-05T13:32:15.381Z,99500.91
2022-10-05T13:34:48.397Z,99494.03
2022-10-05T13:37:20.672Z,99449.38
2022-10-05T13:39:59.514Z,99493.19
2022-10-05T13:42:35.011Z,99496.59
2022-10-05T13:45:11.613Z,99497.44
2022-10-05T13:47:49.384Z,99504.28
2022-10-05T13:50:20.432Z,99496.53
2022-10-05T13:52:55.816Z,99510.25
2022-10-05T13:55:39.093Z,99506.81
2022-10-05T13:58:14.443Z,99475.88
2022-10-05T14:00:48.387Z,99519.75
2022-10-05T14:03:31.323Z,99500.00
2022-10-05T14:06:01.654Z,99503.53
2022-10-05T14:08:33.032Z,99523.31
2022-10-05T14:11:03.098Z,99525.91
2022-10-05T14:13:36.064Z,99526.81
2022-10-05T14:16:19.968Z,99531.13
2022-10-05T14:19:12.087Z,99520.81
2022-10-05T14:21:47.820Z,99536.31
2022-10-05T14:24:42.326Z,99501.97
2022-10-05T14:27:24.200Z,99519.16
2022-10-05T14:30:01.066Z,99534.66
2022-10-05T14:32:32.673Z,99534.66
2022-10-05T14:35:14.138Z,99533.00
2022-10-05T14:37:50.852Z,99547.66
2022-10-05T14:40:39.869Z,99551.09
2022-10-05T14:43:21.016Z,99545.94
2022-10-05T14:45:56.943Z,99558.84
2022-10-05T14:48:28.095Z,99547.72
2022-10-05T14:50:59.495Z,99548.56
2022-10-05T14:53:39.394Z,99577.81
2022-10-05T14:56:36.667Z,99572.66
2022-10-05T14:59:26.249Z,99581.25
2022-10-05T15:01:58.961Z,99579.56
2022-10-05T15:04:37.067Z,99585.56
2022-10-05T15:07:17.983Z,99578.72
2022-10-05T15:10:08.512Z,99583.00
2022-10-05T15:12:40.996Z,99586.44
2022-10-05T15:15:25.552Z,99584.72
2022-10-05T15:17:57.049Z,99567.47
2022-10-05T15:20:27.267Z,99579.53
2022-10-05T15:23:00.545Z,99592.41
2022-10-05T15:25:34.094Z,99587.25
2022-10-05T15:28:13.205Z,99605.31
2022-10-05T15:30:43.363Z,99605.31
2022-10-05T15:33:18.532Z,99604.44
2022-10-05T15:36:04.486Z,99568.31
2022-10-05T15:38:38.890Z,99615.63
2022-10-05T15:41:15.852Z,99618.22
2022-10-05T15:44:10.172Z,99615.63
2022-10-05T15:46:45.457Z,99623.38
2022-10-05T15:49:21.467Z,99614.78
2022-10-05T15:51:57.772Z,99634.56
2022-10-05T15:55:12.083Z,99634.56
2022-10-05T15:57:45.563Z,99612.19
2022-10-05T16:00:15.889Z,99619.94
2022-10-05T16:02:47.625Z,99635.41
2022-10-05T16:05:47.869Z,99640.56
2022-10-05T16:08:56.709Z,99617.31
2022-10-05T16:11:59.149Z,99640.59
2022-10-05T16:14:40.256Z,99644.88
2022-10-05T16:17:25.744Z,99651.81
2022-10-05T16:20:05.314Z,99624.22
2022-10-05T16:22:43.643Z,99641.47
2022-10-05T16:25:16.550Z,99648.31
2022-10-05T16:27:54.685Z,99632.84
2022-10-05T16:30:23.986Z,99633.66
2022-10-05T16:32:59.102Z,99616.47
2022-10-05T16:35:34.068Z,99648.31
2022-10-05T16:38:11.771Z,99644.00
2022-10-05T16:40:46.007Z,99638.84
2022-10-05T16:43:25.730Z,99612.19
2022-10-05T16:46:03.239Z,99641.41
2022-10-05T16:48:36.259Z,99630.22
2022-10-05T16:51:14.139Z,99616.47
2022-10-05T16:53:45.095Z,99638.81
2022-10-05T16:56:16.449Z,99652.63
2022-10-05T16:58:56.675Z,99646.59
2022-10-05T17:01:39.778Z,99656.06
2022-10-05T17:04:17.911Z,99666.34
2022-10-05T17:07:02.814Z,99664.66
2022-10-05T17:09:59.482Z,99663.78
2022-10-05T17:12:45.671Z,99668.06
2022-10-05T17:15:30.445Z,99667.22
2022-10-05T17:18:16.774Z,99662.91
2022-10-05T17:23:54.848Z,99678.41
2022-10-05T17:26:54.615Z,99666.31
2022-10-05T17:29:32.164Z,99680.97
2022-10-05T17:32:12.294Z,99685.25
2022-10-05T17:34:41.415Z,99659.41
2022-10-05T17:37:36.719Z,99681.81
2022-10-05T17:40:32.803Z,99686.94
2022-10-05T17:43:01.618Z,99649.03
2022-10-05T17:46:02.073Z,99686.03
2022-10-05T17:49:07.968Z,99686.81
2022-10-05T17:52:17.512Z,99687.69
2022-10-05T17:55:30.659Z,99672.16
2022-10-05T17:58:01.433Z,99685.09
2022-10-05T18:01:04.434Z,99693.69
2022-10-05T18:03:35.834Z,99688.50
2022-10-05T18:06:32.224Z,99689.34
2022-10-05T18:09:38.797Z,99682.44
2022-10-05T18:12:39.815Z,99697.00
2022-10-05T18:15:48.894Z,99699.50
2022-10-05T18:18:57.403Z,99706.31
2022-10-05T18:21:41.690Z,99706.31
2022-10-05T18:24:38.282Z,99711.41
2022-10-05T18:27:20.057Z,99701.00
2022-10-05T18:30:09.002Z,99707.00
2022-10-05T18:32:50.667Z,99692.31
2022-10-05T18:35:23.245Z,99712.94
2022-10-05T18:38:02.020Z,99715.47
2022-10-05T18:40:41.209Z,99706.88
2022-10-05T18:43:20.623Z,99712.88
2022-10-05T18:46:01.114Z,99714.56
2022-10-05T18:48:35.773Z,99710.22
2022-10-05T18:51:09.734Z,99717.09
2022-10-05T18:53:42.735Z,99725.66
2022-10-05T18:56:22.764Z,99712.69
2022-10-05T18:59:02.790Z,99729.06
2022-10-05T19:01:59.475Z,99701.50
2022-10-05T19:04:39.148Z,99711.09
2022-10-05T19:07:17.270Z,99692.16
2022-10-05T19:10:05.143Z,99711.16
2022-10-05T19:12:44.869Z,99725.81
2022-10-05T19:15:19.447Z,99689.63
2022-10-05T19:17:59.784Z,99720.69
2022-10-05T19:20:34.156Z,99706.03
2022-10-05T19:23:15.694Z,99707.75
2022-10-05T19:25:48.413Z,99727.59
2022-10-05T19:28:26.002Z,99723.34
2022-10-05T19:31:21.503Z,99731.06
2022-10-05T19:33:59.903Z,99725.88
2022-10-05T19:36:39.721Z,99715.53
2022-10-05T19:39:11.625Z,99738.78
2022-10-05T19:41:53.295Z,99733.66
2022-10-05T19:44:31.167Z,99722.44
2022-10-05T19:47:02.150Z,99713.84
2022-10-05T19:49:38.071Z,99703.44
2022-10-05T19:52:13.101Z,99738.81
2022-10-05T19:54:42.455Z,99704.34
2022-10-05T19:57:17.204Z,99733.66
2022-10-05T19:59:49.497Z,99738.84
2022-10-05T20:02:18.441Z,99739.72
2022-10-05T20:04:49.667Z,99718.16
2022-10-05T20:07:21.837Z,99748.34
2022-10-05T20:09:52.995Z,99748.34
2022-10-05T20:12:23.071Z,99737.16
2022-10-05T20:18:00.814Z,99732.00
2022-10-05T20:20:38.819Z,99729.44
2022-10-05T20:23:23.443Z,99732.84
2022-10-05T20:26:06.309Z,99744.88
2022-10-05T20:28:34.938Z,99737.97
2022-10-05T20:31:03.422Z,99721.56
2022-10-05T20:33:34.510Z,99730.13
2022-10-05T20:36:04.159Z,99722.34
2022-10-05T20:38:40.648Z,99739.53
2022-10-05T20:41:09.598Z,99743.84
2022-10-05T20:43:39.493Z,99751.63
2022-10-05T20:46:08.745Z,99753.28
2022-10-05T20:48:38.680Z,99715.41
2022-10-05T20:51:07.363Z,99719.69
2022-10-05T20:53:35.711Z,99743.00
2022-10-05T20:56:04.752Z,99746.41
2022-10-05T20:58:33.145Z,99743.84
2022-10-05T21:01:19.727Z,99742.09
2022-10-05T21:03:49.805Z,99739.53
2022-10-05T21:06:19.216Z,99751.63
2022-10-05T21:08:47.639Z,99751.66
2022-10-05T21:11:16.166Z,99745.66
2022-10-05T21:13:45.873Z,99745.69
2022-10-05T21:16:16.883Z,99752.63
2022-10-05T21:18:47.612Z,99749.19
2022-10-05T21:21:18.439Z,99751.81
2022-10-05T21:23:46.930Z,99744.06
2022-10-05T21:26:15.862Z,99755.25
2022-10-05T21:28:44.281Z,99756.97
2022-10-05T21:31:12.722Z,99744.94
2022-10-05T21:33:41.146Z,99758.72
2022-10-05T21:36:09.664Z,99759.59
2022-10-05T21:38:39.424Z,99753.59
2022-10-05T21:41:07.873Z,99757.94
2022-10-05T21:43:36.232Z,99752.75
2022-10-05T21:46:04.941Z,99758.78
2022-10-05T21:48:34.351Z,99762.22
2022-10-05T21:51:02.922Z,99766.47
2022-10-05T21:53:32.974Z,99766.44
2022-10-05T21:56:04.585Z,99776.78
2022-10-05T21:58:33.137Z,99773.34
2022-10-05T22:01:01.528Z,99783.63
2022-10-05T22:03:30.046Z,99778.47
2022-10-05T22:05:58.563Z,99764.75
2022-10-05T22:08:29.406Z,99783.66
2022-10-05T22:10:58.111Z,99786.28
2022-10-05T22:13:28.495Z,99783.72
2022-10-05T22:15:57.828Z,99781.97
2022-10-05T22:18:27.128Z,99788.03
2022-10-05T22:20:55.648Z,99779.41
2022-10-05T22:23:23.971Z,99773.34
2022-10-05T22:25:52.301Z,99790.59
2022-10-05T22:28:20.638Z,99783.69
2022-10-05T22:30:50.461Z,99795.78
2022-10-05T22:33:18.764Z,99797.53
2022-10-05T22:35:47.116Z,99775.94
2022-10-05T22:38:15.421Z,99790.66
2022-10-05T22:40:43.821Z,99790.66
2022-10-05T22:43:13.472Z,99764.78
2022-10-05T22:45:41.968Z,99778.56
2022-10-05T22:48:11.881Z,99782.91
2022-10-05T22:50:40.299Z,99789.81
2022-10-05T22:53:08.632Z,99789.81
2022-10-05T22:55:36.947Z,99795.00
2022-10-05T22:58:05.300Z,99792.41
2022-10-05T23:00:56.362Z,99798.41
2022-10-05T23:03:23.606Z,99789.84
2022-10-05T23:05:57.670Z,99791.56
2022-10-05T23:08:26.628Z,99792.47
2022-10-05T23:10:55.287Z,99786.47
2022-10-05T23:13:23.677Z,99789.00
2022-10-05T23:15:52.005Z,99793.34
2022-10-05T23:18:20.314Z,99780.47
2022-10-05T23:20:55.523Z,99788.22
2022-10-05T23:23:24.267Z,99769.22
2022-10-05T23:25:52.546Z,99765.88
2022-10-05T23:28:21.011Z,99783.16
2022-10-05T23:30:49.386Z,99784.03
2022-10-05T23:33:17.932Z,99778.06
2022-10-05T23:35:46.203Z,99780.66
2022-10-05T23:38:15.924Z,99791.00
2022-10-05T23:40:47.548Z,99780.69
2022-10-05T23:43:16.071Z,99781.53
2022-10-05T23:45:45.768Z,99791.88
2022-10-05T23:48:14.491Z,99787.56
2022-10-05T23:50:44.109Z,99791.88
2022-10-05T23:53:12.605Z,99787.53
2022-10-05T23:55:42.287Z,99773.69
2022-10-05T23:58:10.913Z,99788.34
